Time;durP1;ratioP1;P1;durP2;ratioP2;P2;SDS_P1;SDS_P2;PMS_P1;PMS_P2;Temp;Humidity;BMP_temperature;BMP_pressure;BME280_temperature;BME280_humidity;BME280_pressure;Samples;Min_cycle;Max_cycle;Signal;HPM_P1;HPM_P2
2021/03/23 00:00:51;;;;;;;10.50;3.42;;;0.10;56.60;;;;;;5067576;28;20115;-67
2021/03/23 00:03:41;;;;;;;8.40;2.97;;;0.00;56.80;;;;;;5067475;28;20093;-68
2021/03/23 00:06:08;;;;;;;11.55;3.63;;;-0.10;57.40;;;;;;5067407;28;20040;-67
2021/03/23 00:08:34;;;;;;;14.20;5.07;;;-0.20;58.00;;;;;;5067559;28;20024;-67
2021/03/23 00:11:01;;;;;;;;;;;-0.40;58.30;;;;;;5067765;28;20574;-67
2021/03/23 00:13:27;;;;;;;26.92;10.43;;;-0.50;59.00;;;;;;5068295;28;20312;-67
2021/03/23 00:15:52;;;;;;;;;;;-0.60;59.50;;;;;;5071880;28;20028;-67
2021/03/23 00:18:18;;;;;;;36.38;10.73;;;-0.70;60.30;;;;;;5071382;28;19958;-67
2021/03/23 00:20:45;;;;;;;43.10;12.82;;;-0.80;60.10;;;;;;5071282;28;20068;-66
2021/03/23 00:23:11;;;;;;;27.50;9.50;;;-0.90;60.50;;;;;;5071166;28;20119;-67
2021/03/23 00:25:37;;;;;;;10.57;3.80;;;-1.00;60.70;;;;;;5069515;28;20044;-67
2021/03/23 00:28:04;;;;;;;;;;;-1.00;61.00;;;;;;5070341;28;20028;-67
2021/03/23 00:30:29;;;;;;;40.58;16.58;;;-1.10;62.10;;;;;;5071051;28;20290;-67
2021/03/23 00:32:55;;;;;;;;;;;-1.20;62.60;;;;;;5071334;28;20110;-67
2021/03/23 00:35:21;;;;;;;13.10;4.00;;;-1.20;63.20;;;;;;5069400;28;20281;-67
2021/03/23 00:37:54;;;;;;;9.77;3.63;;;-1.20;62.80;;;;;;5070793;28;20024;-68
2021/03/23 00:40:24;;;;;;;12.13;3.22;;;-1.30;62.50;;;;;;5070611;28;20055;-67
2021/03/23 00:42:50;;;;;;;10.40;3.17;;;-1.30;62.60;;;;;;5070697;28;20105;-67
2021/03/23 00:45:16;;;;;;;;;;;-1.30;62.80;;;;;;5069605;28;20040;-67
2021/03/23 00:47:42;;;;;;;14.63;5.40;;;-1.40;62.90;;;;;;5070729;28;20057;-67
2021/03/23 00:50:07;;;;;;;;;;;-1.50;62.90;;;;;;5071116;28;20104;-68
2021/03/23 00:52:33;;;;;;;11.15;3.55;;;-1.50;63.60;;;;;;5070553;28;20007;-67
2021/03/23 00:54:59;;;;;;;;;;;-1.50;63.40;;;;;;5071026;28;20025;-67
2021/03/23 00:57:24;;;;;;;8.55;2.45;;;-1.60;63.80;;;;;;5070293;28;20272;-66
2021/03/23 00:59:50;;;;;;;;;;;-1.50;64.20;;;;;;5069990;28;20040;-67
2021/03/23 01:02:16;;;;;;;7.40;2.15;;;-1.50;63.00;;;;;;5070449;28;20316;-67
2021/03/23 01:04:41;;;;;;;;;;;-1.50;63.10;;;;;;5070797;28;20497;-67
2021/03/23 01:07:07;;;;;;;14.52;5.80;;;-1.50;62.70;;;;;;5070052;28;19957;-67
2021/03/23 01:09:32;;;;;;;;;;;-1.50;62.60;;;;;;5069338;28;20397;-67
2021/03/23 01:11:58;;;;;;;10.85;3.55;;;-1.60;63.60;;;;;;5070292;28;19995;-67
2021/03/23 01:14:24;;;;;;;;;;;-1.60;63.40;;;;;;5070651;28;20039;-67
2021/03/23 01:16:49;;;;;;;13.73;5.50;;;-1.70;63.50;;;;;;5070136;28;19920;-67
2021/03/23 01:19:15;;;;;;;;;;;-1.70;63.60;;;;;;5069118;28;20068;-66
2021/03/23 01:21:40;;;;;;;22.58;8.30;;;-1.70;64.10;;;;;;5070219;28;19915;-66
2021/03/23 01:24:07;;;;;;;;;;;-1.70;64.20;;;;;;5069978;28;20082;-67
2021/03/23 01:26:33;;;;;;;11.30;3.67;;;-1.70;64.30;;;;;;5068546;28;19989;-68
2021/03/23 01:28:58;;;;;;;;;;;-1.60;63.70;;;;;;5070516;28;20596;-67
2021/03/23 01:31:24;;;;;;;12.38;3.13;;;-1.70;63.70;;;;;;5069825;28;19911;-67
2021/03/23 01:33:49;;;;;;;;;;;-1.70;64.20;;;;;;5070363;28;20043;-67
2021/03/23 01:36:15;;;;;;;9.82;3.47;;;-1.80;64.20;;;;;;5069813;28;20251;-67
2021/03/23 01:38:40;;;;;;;;;;;-1.70;64.20;;;;;;5070230;28;20481;-66
2021/03/23 01:41:06;;;;;;;9.70;4.00;;;-1.70;64.20;;;;;;5069610;28;19983;-66
2021/03/23 01:43:33;;;;;;;;;;;-1.70;64.10;;;;;;5070127;28;20040;-66
2021/03/23 01:46:01;;;;;;;10.88;3.63;;;-1.70;63.70;;;;;;5069685;28;19923;-66
2021/03/23 01:48:30;;;;;;;11.00;3.88;;;-1.70;63.50;;;;;;5069496;28;20040;-66
2021/03/23 01:51:03;;;;;;;17.50;3.88;;;-1.60;63.70;;;;;;5069375;28;20103;-67
2021/03/23 01:53:36;;;;;;;8.82;3.25;;;-1.60;63.50;;;;;;5069387;28;20028;-67
2021/03/23 01:56:03;;;;;;;10.82;3.97;;;-1.70;63.30;;;;;;5069368;28;20016;-66
2021/03/23 01:58:31;;;;;;;10.90;4.63;;;-1.60;63.30;;;;;;5069289;28;20028;-67
2021/03/23 02:00:57;;;;;;;14.30;6.28;;;-1.70;63.50;;;;;;5069229;28;20025;-67
2021/03/23 02:03:22;;;;;;;;;;;-1.70;63.50;;;;;;5069663;28;20124;-67
2021/03/23 02:05:59;;;;;;;12.88;4.97;;;-1.70;63.80;;;;;;5069267;28;19916;-68
2021/03/23 02:08:26;;;;;;;12.25;4.72;;;-1.70;64.50;;;;;;5067799;28;20584;-68
2021/03/23 02:10:54;;;;;;;6.95;2.35;;;-1.70;64.20;;;;;;5069113;28;20400;-67
2021/03/23 02:13:20;;;;;;;6.03;2.10;;;-1.70;63.80;;;;;;5068993;28;20419;-67
2021/03/23 02:15:46;;;;;;;5.68;1.73;;;-1.80;63.40;;;;;;5069089;28;20032;-68
2021/03/23 02:18:22;;;;;;;8.50;1.90;;;-1.70;63.20;;;;;;5069001;28;20040;-67
2021/03/23 02:21:08;;;;;;;7.57;1.52;;;-1.70;63.20;;;;;;5069052;28;20388;-68
2021/03/23 02:23:39;;;;;;;4.83;1.60;;;-1.70;63.20;;;;;;5067501;28;20037;-66
2021/03/23 02:26:07;;;;;;;5.55;1.70;;;-1.80;63.20;;;;;;5068818;28;20036;-67
2021/03/23 02:28:53;;;;;;;10.20;2.45;;;-1.80;63.30;;;;;;5068709;28;20489;-66
2021/03/23 02:31:29;;;;;;;7.22;2.00;;;-1.80;63.30;;;;;;5068611;28;20119;-66
2021/03/23 02:33:56;;;;;;;8.75;2.40;;;-1.80;63.30;;;;;;5068795;28;20154;-67
2021/03/23 02:36:23;;;;;;;11.45;2.17;;;-1.80;63.60;;;;;;5066629;28;20035;-66
2021/03/23 02:38:48;;;;;;;5.65;1.88;;;-1.80;63.80;;;;;;5068414;28;20024;-67
2021/03/23 02:41:14;;;;;;;;;;;-1.90;63.70;;;;;;5068878;28;20048;-66
2021/03/23 02:43:40;;;;;;;12.85;3.53;;;-1.90;63.90;;;;;;5068565;28;19983;-68
2021/03/23 02:46:06;;;;;;;;;;;-1.90;64.00;;;;;;5068746;28;20045;-67
2021/03/23 02:48:31;;;;;;;6.70;1.42;;;-1.80;64.10;;;;;;5068424;28;19987;-67
2021/03/23 02:50:57;;;;;;;;;;;-1.90;64.10;;;;;;5067347;28;20027;-67
2021/03/23 02:53:23;;;;;;;8.68;1.77;;;-1.80;64.10;;;;;;5068083;28;20286;-67
2021/03/23 02:55:48;;;;;;;;;;;-1.80;64.10;;;;;;5068637;28;20078;-68
2021/03/23 02:58:15;;;;;;;3.60;1.33;;;-1.80;64.20;;;;;;5068129;28;19931;-67
2021/03/23 03:00:41;;;;;;;6.65;1.75;;;-1.80;63.80;;;;;;5066958;28;20055;-67
2021/03/23 03:03:07;;;;;;;3.83;1.45;;;-1.70;63.60;;;;;;5068174;28;20369;-67
2021/03/23 03:05:33;;;;;;;;;;;-1.70;63.40;;;;;;5068583;28;20496;-67
2021/03/23 03:07:59;;;;;;;4.82;1.52;;;-1.70;63.50;;;;;;5066710;28;19927;-68
2021/03/23 03:10:25;;;;;;;4.30;1.38;;;-1.80;63.60;;;;;;5068194;28;20040;-68
2021/03/23 03:12:51;;;;;;;5.75;2.17;;;-1.90;64.10;;;;;;5068164;28;20017;-68
2021/03/23 03:15:17;;;;;;;;;;;-1.90;64.30;;;;;;5067010;28;20523;-67
2021/03/23 03:17:43;;;;;;;5.60;1.02;;;-1.90;64.30;;;;;;5068057;28;19908;-67
2021/03/23 03:20:10;;;;;;;;;;;-2.00;64.70;;;;;;5068426;28;20025;-67
2021/03/23 03:22:35;;;;;;;4.55;1.13;;;-2.10;65.00;;;;;;5067869;28;19913;-67
2021/03/23 03:25:01;;;;;;;;;;;-2.10;65.40;;;;;;5068247;28;20042;-68
2021/03/23 03:27:26;;;;;;;14.48;4.95;;;-2.20;65.60;;;;;;5067688;28;19909;-67
2021/03/23 03:29:52;;;;;;;32.05;12.63;;;-2.10;65.80;;;;;;5067864;28;20037;-66
2021/03/23 03:32:17;;;;;;;;;;;-2.10;65.90;;;;;;5068274;28;20043;-68
2021/03/23 03:34:43;;;;;;;13.85;4.97;;;-2.10;66.00;;;;;;5067650;28;19918;-67
2021/03/23 03:37:09;;;;;;;17.45;3.50;;;-2.10;65.90;;;;;;5067502;28;20516;-67
2021/03/23 03:39:34;;;;;;;;;;;-2.10;65.80;;;;;;5067937;28;20024;-68
2021/03/23 03:42:00;;;;;;;39.63;10.05;;;-2.10;66.00;;;;;;5067527;28;20377;-68
2021/03/23 03:44:26;;;;;;;65.55;16.60;;;-2.20;66.30;;;;;;5067642;28;20837;-66
2021/03/23 03:46:52;;;;;;;;;;;-2.20;66.40;;;;;;5068580;28;20051;-68
2021/03/23 03:49:17;;;;;;;41.17;10.98;;;-2.20;66.80;;;;;;5074361;28;19915;-68
2021/03/23 03:51:43;;;;;;;;;;;-2.30;66.70;;;;;;5074675;28;20028;-68
2021/03/23 03:54:08;;;;;;;9.65;2.53;;;-2.30;66.70;;;;;;5074276;28;20368;-67
2021/03/23 03:56:34;;;;;;;;;;;-2.20;66.70;;;;;;5074801;28;20150;-67
2021/03/23 03:59:00;;;;;;;11.43;2.92;;;-2.20;66.90;;;;;;5074155;28;19908;-68
2021/03/23 04:01:25;;;;;;;;;;;-2.20;68.00;;;;;;5074452;28;20027;-67
2021/03/23 04:03:51;;;;;;;11.20;3.78;;;-2.10;68.00;;;;;;5074244;28;20069;-67
2021/03/23 04:06:16;;;;;;;17.80;4.72;;;-2.10;67.90;;;;;;5073971;28;20043;-68
2021/03/23 04:08:42;;;;;;;;;;;-2.00;68.20;;;;;;5074629;28;20386;-66
2021/03/23 04:11:09;;;;;;;20.58;5.50;;;-1.90;68.20;;;;;;5074021;28;19912;-67
2021/03/23 04:13:35;;;;;;;17.75;5.97;;;-1.80;68.20;;;;;;5073929;28;20023;-68
2021/03/23 04:16:01;;;;;;;;;;;-1.80;68.10;;;;;;5073199;28;20475;-67
2021/03/23 04:18:28;;;;;;;11.90;4.18;;;-1.70;68.00;;;;;;5073997;28;19914;-66
2021/03/23 04:20:57;;;;;;;14.18;4.07;;;-1.60;67.80;;;;;;5073937;28;20024;-68
2021/03/23 04:23:27;;;;;;;9.07;3.95;;;-1.50;67.70;;;;;;5073768;28;20040;-67
2021/03/23 04:25:54;;;;;;;11.23;2.85;;;-1.40;67.30;;;;;;5073886;28;20028;-67
2021/03/23 04:28:20;;;;;;;8.15;2.90;;;-1.30;67.00;;;;;;5073850;28;20479;-68
2021/03/23 04:30:47;;;;;;;12.20;3.63;;;-1.20;66.70;;;;;;5072790;28;20024;-68
2021/03/23 04:33:13;;;;;;;33.35;9.68;;;-1.10;65.80;;;;;;5073857;28;20489;-67
2021/03/23 04:35:49;;;;;;;30.15;12.23;;;-1.00;65.50;;;;;;5073748;28;20056;-67
2021/03/23 04:38:19;;;;;;;29.13;10.60;;;-0.90;64.90;;;;;;5074188;28;20136;-67
2021/03/23 04:40:45;;;;;;;31.80;13.13;;;-0.90;64.50;;;;;;5073709;28;20040;-67
2021/03/23 04:43:21;;;;;;;27.25;11.77;;;-0.90;65.10;;;;;;5073753;28;20036;-68
2021/03/23 04:45:47;;;;;;;18.83;6.75;;;-0.90;64.80;;;;;;5073845;28;20040;-68
2021/03/23 04:48:12;;;;;;;;;;;-0.90;64.90;;;;;;5074146;28;20028;-67
2021/03/23 04:50:38;;;;;;;23.98;9.30;;;-0.90;65.20;;;;;;5073771;28;19983;-67
2021/03/23 04:53:03;;;;;;;;;;;-0.90;65.60;;;;;;5074129;28;20118;-67
2021/03/23 04:55:29;;;;;;;37.35;14.25;;;-0.90;65.60;;;;;;5073837;28;19904;-67
2021/03/23 04:57:55;;;;;;;;;;;-0.90;65.60;;;;;;5072761;28;20094;-68
2021/03/23 05:00:20;;;;;;;25.52;11.77;;;-0.80;65.80;;;;;;5069982;28;20375;-68
2021/03/23 05:02:46;;;;;;;;;;;-0.80;65.60;;;;;;5070908;28;20063;-67
2021/03/23 05:05:12;;;;;;;39.20;17.48;;;-0.70;65.80;;;;;;5070195;28;19948;-68
2021/03/23 05:07:37;;;;;;;;;;;-0.70;66.00;;;;;;5070738;28;20040;-67
2021/03/23 05:10:05;;;;;;;25.65;11.30;;;-0.70;65.90;;;;;;5070421;28;19911;-67
2021/03/23 05:12:31;;;;;;;23.27;8.93;;;-0.60;66.20;;;;;;5070604;28;20031;-67
2021/03/23 05:14:56;;;;;;;;;;;-0.50;66.00;;;;;;5069697;28;20054;-68
2021/03/23 05:17:22;;;;;;;33.22;12.95;;;-0.40;65.30;;;;;;5068469;28;19930;-67
2021/03/23 05:19:47;;;;;;;;;;;-0.30;65.30;;;;;;5070774;28;20024;-68
2021/03/23 05:22:13;;;;;;;40.97;14.90;;;-0.30;64.50;;;;;;5068720;28;19908;-67
2021/03/23 05:24:38;;;;;;;;;;;-0.20;64.70;;;;;;5070572;28;20131;-67
2021/03/23 05:27:05;;;;;;;43.47;16.30;;;-0.10;64.30;;;;;;5070229;28;20639;-68
2021/03/23 05:29:30;;;;;;;41.40;14.90;;;-0.10;64.10;;;;;;5070024;28;20036;-68
2021/03/23 05:31:56;;;;;;;;;;;0.00;63.90;;;;;;5070355;28;20036;-67
2021/03/23 05:34:21;;;;;;;25.13;8.82;;;0.10;64.20;;;;;;5069699;28;19908;-68
2021/03/23 05:36:47;;;;;;;;;;;0.20;63.80;;;;;;5070304;28;20047;-67
2021/03/23 05:39:13;;;;;;;26.95;10.93;;;0.30;64.10;;;;;;5069637;28;19908;-68
2021/03/23 05:41:44;;;;;;;;;;;0.40;63.20;;;;;;5069999;28;20118;-67
2021/03/23 05:44:32;;;;;;;30.63;11.93;;;0.50;62.90;;;;;;5069567;28;20018;-67
2021/03/23 05:46:58;;;;;;;35.90;12.35;;;0.70;62.50;;;;;;5067986;28;20046;-68
2021/03/23 05:49:28;;;;;;;31.27;10.82;;;0.70;62.30;;;;;;5069348;28;20102;-67
2021/03/23 05:52:05;;;;;;;43.22;18.35;;;0.80;62.10;;;;;;5069333;28;20028;-67
2021/03/23 05:54:45;;;;;;;40.22;17.02;;;0.90;61.80;;;;;;5068116;28;20396;-67
2021/03/23 05:57:35;;;;;;;34.33;15.02;;;1.10;62.40;;;;;;5069282;28;20028;-67
2021/03/23 06:00:19;;;;;;;28.45;14.73;;;1.20;61.70;;;;;;5059745;28;20514;-68
2021/03/23 06:02:53;;;;;;;39.60;20.30;;;1.50;58.80;;;;;;5069318;28;20082;-68
2021/03/23 06:05:38;;;;;;;25.73;11.70;;;1.60;57.90;;;;;;5068850;28;20081;-68
2021/03/23 06:08:16;;;;;;;11.85;5.95;;;1.70;58.80;;;;;;5069042;28;20040;-68
2021/03/23 06:10:41;;;;;;;12.68;5.22;;;1.70;58.00;;;;;;5066653;28;20029;-67
2021/03/23 06:13:10;;;;;;;;;;;1.90;58.10;;;;;;5069514;28;20107;-67
2021/03/23 06:15:47;;;;;;;38.00;16.30;;;2.00;59.60;;;;;;5069114;28;20025;-67
2021/03/23 06:18:25;;;;;;;51.90;24.52;;;2.10;59.90;;;;;;5068782;28;20028;-67
2021/03/23 06:20:57;;;;;;;70.57;30.30;;;2.30;60.20;;;;;;5069020;28;20032;-69
2021/03/23 06:23:44;;;;;;;48.20;22.85;;;2.40;60.20;;;;;;5068781;28;20028;-68
2021/03/23 06:26:12;;;;;;;54.28;27.73;;;2.40;60.10;;;;;;5068865;28;20041;-67
2021/03/23 06:29:02;;;;;;;57.17;26.42;;;2.50;59.90;;;;;;5067505;28;20060;-67
2021/03/23 06:31:38;;;;;;;53.53;25.33;;;2.60;59.60;;;;;;5068466;28;20064;-68
2021/03/23 06:34:04;;;;;;;47.20;22.38;;;2.70;58.30;;;;;;5068740;28;20493;-68
2021/03/23 06:36:31;;;;;;;;;;;2.80;58.30;;;;;;5068924;28;20045;-68
2021/03/23 06:38:57;;;;;;;48.20;20.33;;;3.00;57.30;;;;;;5068564;28;20487;-67
2021/03/23 06:41:28;;;;;;;36.38;18.50;;;3.20;56.90;;;;;;5068278;28;20087;-67
2021/03/23 06:44:00;;;;;;;34.63;17.05;;;3.40;55.80;;;;;;5068496;28;20502;-68
2021/03/23 06:46:32;;;;;;;22.88;9.75;;;3.70;55.20;;;;;;5068273;28;20083;-68
2021/03/23 06:49:12;;;;;;;20.00;8.07;;;4.00;53.90;;;;;;5066898;28;20056;-68
2021/03/23 06:52:01;;;;;;;11.73;5.10;;;4.40;52.90;;;;;;5068367;28;20157;-68
2021/03/23 06:54:32;;;;;;;12.18;5.05;;;4.90;51.40;;;;;;5068419;28;20024;-68
2021/03/23 06:57:06;;;;;;;10.30;5.10;;;5.10;51.30;;;;;;5068119;28;20036;-68
2021/03/23 06:59:58;;;;;;;14.45;4.93;;;5.50;50.30;;;;;;5066956;28;20116;-68
2021/03/23 07:02:35;;;;;;;10.23;4.07;;;5.80;49.00;;;;;;5066781;28;20342;-67
2021/03/23 07:05:19;;;;;;;9.60;4.63;;;6.10;48.00;;;;;;5066771;28;20051;-68
2021/03/23 07:07:56;;;;;;;12.65;4.78;;;6.40;46.30;;;;;;5067979;28;20448;-68
2021/03/23 07:10:33;;;;;;;13.55;3.75;;;6.60;46.50;;;;;;5068058;28;20035;-68
2021/03/23 07:13:00;;;;;;;10.90;2.97;;;6.80;45.20;;;;;;5067911;28;20020;-68
2021/03/23 07:15:31;;;;;;;11.88;3.22;;;6.90;43.40;;;;;;5067896;28;20069;-67
2021/03/23 07:18:20;;;;;;;7.47;2.65;;;7.20;43.50;;;;;;5067860;28;20040;-68
2021/03/23 07:20:49;;;;;;;9.13;3.40;;;7.50;42.30;;;;;;5058446;28;20432;-68
2021/03/23 07:23:48;;;;;;;8.18;3.22;;;7.90;41.20;;;;;;5067294;28;20025;-68
2021/03/23 07:26:35;;;;;;;7.28;3.65;;;8.30;40.00;;;;;;5022801;28;20041;-68
2021/03/23 07:29:09;;;;;;;7.97;3.60;;;8.70;39.60;;;;;;5067749;28;20029;-68
2021/03/23 07:31:47;;;;;;;7.35;2.97;;;9.20;38.70;;;;;;5066354;28;20540;-68
2021/03/23 07:34:28;;;;;;;7.18;2.90;;;9.50;37.80;;;;;;5066286;28;20020;-68
2021/03/23 07:36:58;;;;;;;18.30;3.00;;;9.80;36.80;;;;;;5067522;28;20420;-68
2021/03/23 07:39:33;;;;;;;7.78;2.92;;;9.80;36.20;;;;;;5067720;28;20606;-68
2021/03/23 07:42:27;;;;;;;9.63;2.60;;;10.00;35.10;;;;;;5067451;28;20068;-68
2021/03/23 07:45:07;;;;;;;17.05;3.20;;;10.00;35.20;;;;;;5067704;28;20062;-68
2021/03/23 07:47:47;;;;;;;7.13;2.63;;;10.10;34.90;;;;;;5067655;28;20052;-68
2021/03/23 07:50:15;;;;;;;7.80;3.10;;;10.00;35.20;;;;;;5067966;28;20040;-68
2021/03/23 07:53:08;;;;;;;7.43;2.97;;;10.10;35.40;;;;;;5067567;28;20028;-67
2021/03/23 07:55:35;;;;;;;7.93;2.80;;;10.30;34.60;;;;;;5067620;28;20033;-69
2021/03/23 07:58:19;;;;;;;7.60;2.38;;;10.50;34.40;;;;;;5066188;28;20031;-68
2021/03/23 08:01:08;;;;;;;4.82;2.40;;;10.70;33.10;;;;;;5066106;28;20048;-68
2021/03/23 08:03:37;;;;;;;6.28;2.42;;;10.70;33.10;;;;;;5056446;28;20044;-68
2021/03/23 08:06:27;;;;;;;5.32;2.47;;;11.00;32.60;;;;;;5067218;28;20114;-68
2021/03/23 08:09:12;;;;;;;4.78;2.10;;;11.30;32.10;;;;;;5065991;28;20025;-69
2021/03/23 08:12:22;;;;;;;8.48;2.08;;;11.50;31.40;;;;;;5067490;28;20025;-67
2021/03/23 08:15:10;;;;;;;5.93;2.42;;;11.60;30.40;;;;;;5046176;28;20041;-68
2021/03/23 08:17:51;;;;;;;10.68;2.72;;;11.40;30.80;;;;;;5067352;28;20025;-68
2021/03/23 08:20:42;;;;;;;4.90;1.95;;;11.30;31.40;;;;;;5065842;28;20554;-68
2021/03/23 08:23:32;;;;;;;5.97;3.05;;;11.30;30.90;;;;;;5067284;28;20123;-68
2021/03/23 08:26:22;;;;;;;5.43;2.42;;;11.50;32.20;;;;;;5065716;28;20029;-69
2021/03/23 08:29:04;;;;;;;6.93;2.58;;;11.70;31.30;;;;;;5067056;28;20043;-68
2021/03/23 08:31:33;;;;;;;6.20;2.85;;;11.50;31.50;;;;;;5067250;28;20029;-68
2021/03/23 08:34:30;;;;;;;7.15;2.58;;;11.30;31.70;;;;;;5067559;28;20457;-68
2021/03/23 08:37:30;;;;;;;5.80;2.58;;;11.00;32.00;;;;;;5071006;28;20115;-67
2021/03/23 08:40:05;;;;;;;6.47;2.80;;;10.70;32.20;;;;;;5071079;28;20056;-68
2021/03/23 08:42:31;;;;;;;8.35;2.78;;;10.50;33.60;;;;;;5070996;28;20404;-67
2021/03/23 08:44:59;;;;;;;;;;;10.30;34.00;;;;;;5071233;28;20024;-67
2021/03/23 08:47:42;;;;;;;20.08;6.65;;;10.20;34.30;;;;;;5070490;28;19917;-67
2021/03/23 08:50:09;;;;;;;8.60;3.47;;;10.20;34.80;;;;;;5070568;28;20400;-67
2021/03/23 08:52:43;;;;;;;7.05;3.25;;;9.90;35.20;;;;;;5070565;28;20043;-67
2021/03/23 08:55:26;;;;;;;6.88;3.42;;;9.90;35.90;;;;;;5070446;28;20389;-68
2021/03/23 08:58:02;;;;;;;7.93;3.97;;;9.70;36.60;;;;;;5070602;28;20067;-68
2021/03/23 09:00:36;;;;;;;8.27;3.53;;;9.70;36.10;;;;;;5070553;28;20042;-68
2021/03/23 09:03:08;;;;;;;11.35;4.03;;;9.70;36.00;;;;;;5069145;28;20076;-67
2021/03/23 09:05:51;;;;;;;8.10;3.72;;;9.80;37.10;;;;;;5070640;28;20020;-68
2021/03/23 09:08:21;;;;;;;7.85;4.03;;;9.80;36.20;;;;;;5070429;28;20109;-68
2021/03/23 09:11:00;;;;;;;14.32;3.83;;;9.60;36.20;;;;;;5070216;28;20120;-68
2021/03/23 09:13:35;;;;;;;9.20;4.88;;;9.70;36.70;;;;;;5070187;28;20028;-67
2021/03/23 09:16:05;;;;;;;10.18;4.40;;;9.80;36.30;;;;;;5070087;28;20078;-68
2021/03/23 09:18:36;;;;;;;9.07;3.40;;;9.80;36.10;;;;;;5070225;28;20037;-67
2021/03/23 09:21:09;;;;;;;8.25;3.35;;;9.90;35.60;;;;;;5070158;28;20566;-68
2021/03/23 09:23:39;;;;;;;8.57;3.25;;;9.90;35.80;;;;;;5070104;28;20468;-66
2021/03/23 09:26:30;;;;;;;8.50;3.90;;;9.80;36.50;;;;;;5070059;28;20032;-68
2021/03/23 09:28:58;;;;;;;9.50;3.70;;;9.90;36.40;;;;;;5070032;28;20040;-68
2021/03/23 09:31:29;;;;;;;7.70;4.20;;;9.90;36.70;;;;;;5069766;28;20530;-68
2021/03/23 09:33:59;;;;;;;8.52;3.47;;;10.10;36.10;;;;;;5070089;28;20159;-68
2021/03/23 09:36:34;;;;;;;10.30;3.97;;;10.20;35.90;;;;;;5068451;28;20500;-68
2021/03/23 09:39:19;;;;;;;12.30;4.00;;;10.40;35.20;;;;;;5069840;28;20032;-68
2021/03/23 09:41:53;;;;;;;14.30;5.15;;;10.60;34.80;;;;;;5069570;28;20381;-67
2021/03/23 09:44:20;;;;;;;11.45;4.30;;;10.60;35.10;;;;;;5069581;28;20388;-68
2021/03/23 09:46:56;;;;;;;15.60;3.83;;;10.70;34.70;;;;;;5067726;28;20051;-68
2021/03/23 09:49:46;;;;;;;11.23;4.10;;;10.80;34.40;;;;;;5067960;28;20029;-67
2021/03/23 09:52:24;;;;;;;14.50;5.97;;;10.90;34.30;;;;;;5069516;28;20029;-67
2021/03/23 09:54:57;;;;;;;8.68;4.25;;;11.00;34.10;;;;;;5069380;28;20020;-68
2021/03/23 09:57:26;;;;;;;10.02;3.03;;;11.10;33.70;;;;;;5069252;28;20408;-68
2021/03/23 09:59:56;;;;;;;6.53;3.05;;;11.20;33.30;;;;;;5069588;28;20123;-69
2021/03/23 10:02:26;;;;;;;9.15;3.13;;;11.20;33.30;;;;;;5069449;28;20038;-68
2021/03/23 10:04:52;;;;;;;8.25;3.33;;;11.20;33.50;;;;;;5069203;28;20480;-68
2021/03/23 10:07:28;;;;;;;;;;;11.30;33.50;;;;;;5069609;28;20044;-68
2021/03/23 10:09:54;;;;;;;8.10;3.00;;;11.30;33.10;;;;;;5067980;28;19997;-68
2021/03/23 10:12:31;;;;;;;9.02;3.30;;;11.30;33.60;;;;;;5069383;28;20035;-68
2021/03/23 10:14:57;;;;;;;7.40;3.95;;;11.40;34.30;;;;;;5069128;28;20020;-68
2021/03/23 10:17:24;;;;;;;;;;;11.40;34.50;;;;;;5069332;28;20040;-68
2021/03/23 10:19:55;;;;;;;8.30;4.43;;;11.40;34.10;;;;;;5069057;28;19908;-67
2021/03/23 10:22:37;;;;;;;5.55;2.85;;;11.40;34.50;;;;;;5068804;28;20036;-68
2021/03/23 10:25:11;;;;;;;10.40;3.50;;;11.40;34.50;;;;;;5069076;28;20507;-68
2021/03/23 10:27:38;;;;;;;6.07;2.78;;;11.60;33.90;;;;;;5068852;28;20415;-67
2021/03/23 10:30:31;;;;;;;8.00;3.28;;;11.70;33.80;;;;;;5069015;28;20060;-67
2021/03/23 10:33:16;;;;;;;9.95;4.35;;;11.90;32.10;;;;;;5068686;28;20185;-68
2021/03/23 10:35:42;;;;;;;6.75;3.08;;;11.90;31.40;;;;;;5068590;28;20033;-68
2021/03/23 10:38:13;;;;;;;;;;;12.00;30.50;;;;;;5068940;28;20031;-68
2021/03/23 10:40:41;;;;;;;7.35;2.75;;;12.20;30.10;;;;;;5068592;28;20142;-67
2021/03/23 10:43:12;;;;;;;6.07;2.58;;;11.90;30.70;;;;;;5068432;28;20039;-68
2021/03/23 10:45:45;;;;;;;5.50;2.33;;;11.90;31.10;;;;;;5068410;28;20024;-68
2021/03/23 10:48:27;;;;;;;3.58;1.55;;;12.00;31.50;;;;;;5068535;28;20035;-68
2021/03/23 10:51:18;;;;;;;5.80;2.08;;;12.30;29.50;;;;;;5068374;28;20028;-68
2021/03/23 10:54:10;;;;;;;7.00;2.50;;;12.20;29.70;;;;;;5068471;28;20028;-68
2021/03/23 10:56:48;;;;;;;7.70;1.73;;;12.30;29.20;;;;;;5057364;28;20048;-68
2021/03/23 10:59:17;;;;;;;4.75;2.00;;;12.20;29.40;;;;;;5068222;28;20028;-67
2021/03/23 11:02:17;;;;;;;4.53;1.83;;;12.40;29.00;;;;;;5068340;28;20432;-68
2021/03/23 11:05:02;;;;;;;4.03;1.98;;;12.50;28.90;;;;;;5068160;28;20035;-68
2021/03/23 11:07:30;;;;;;;6.72;1.63;;;12.40;29.20;;;;;;5067911;28;20043;-68
2021/03/23 11:09:59;;;;;;;5.00;2.05;;;12.60;28.30;;;;;;5068116;28;20027;-68
2021/03/23 11:12:29;;;;;;;6.72;2.15;;;12.30;28.70;;;;;;5068055;28;20024;-68
2021/03/23 11:14:56;;;;;;;4.28;1.55;;;12.40;29.40;;;;;;5068093;28;20544;-67
2021/03/23 11:17:24;;;;;;;8.45;2.25;;;12.50;29.10;;;;;;5067741;28;20083;-67
2021/03/23 11:19:59;;;;;;;3.05;1.80;;;12.40;29.00;;;;;;5067713;28;20029;-68
2021/03/23 11:22:34;;;;;;;3.72;1.73;;;12.30;29.20;;;;;;5067927;28;20504;-67
2021/03/23 11:25:00;;;;;;;5.07;1.88;;;12.40;29.00;;;;;;5067813;28;20084;-68
2021/03/23 11:27:27;;;;;;;7.50;2.38;;;12.60;29.20;;;;;;5067529;28;20127;-67
2021/03/23 11:29:57;;;;;;;5.57;2.13;;;12.50;29.40;;;;;;5067783;28;20503;-68
2021/03/23 11:32:24;;;;;;;6.22;1.95;;;12.40;29.50;;;;;;5067752;28;20540;-69
2021/03/23 11:34:50;;;;;;;6.35;2.40;;;12.40;29.60;;;;;;5067711;28;20399;-67
2021/03/23 11:37:17;;;;;;;6.13;2.20;;;12.30;29.90;;;;;;5067747;28;20028;-67
2021/03/23 11:39:43;;;;;;;5.88;2.20;;;12.40;30.00;;;;;;5067677;28;20512;-68
2021/03/23 11:42:27;;;;;;;;;;;12.50;29.90;;;;;;5068082;28;20127;-68
2021/03/23 11:45:05;;;;;;;6.75;2.00;;;12.50;29.80;;;;;;5067735;28;19935;-67
2021/03/23 11:47:42;;;;;;;6.05;2.80;;;12.70;30.40;;;;;;5067588;28;20036;-68
2021/03/23 11:50:18;;;;;;;3.42;1.77;;;13.00;29.70;;;;;;5067579;28;20020;-68
2021/03/23 11:52:44;;;;;;;4.88;2.03;;;13.50;29.00;;;;;;5067701;28;20127;-67
2021/03/23 11:55:12;;;;;;;;;;;13.60;28.70;;;;;;5066576;28;20060;-68
2021/03/23 11:57:38;;;;;;;3.67;1.42;;;13.80;28.00;;;;;;5067564;28;20642;-68
2021/03/23 12:00:07;;;;;;;5.95;2.10;;;13.90;28.10;;;;;;5066521;28;20078;-68
2021/03/23 12:02:32;;;;;;;7.90;2.33;;;14.00;28.20;;;;;;5049686;28;20119;-68
2021/03/23 12:04:58;;;;;;;;;;;13.80;27.60;;;;;;5067900;28;20112;-68
2021/03/23 12:07:46;;;;;;;5.68;2.25;;;13.70;27.60;;;;;;5067135;28;19962;-68
2021/03/23 12:10:26;;;;;;;5.30;2.50;;;13.60;28.10;;;;;;5071454;28;20024;-67
2021/03/23 12:13:27;;;;;;;7.30;2.17;;;13.60;28.60;;;;;;5071603;28;20017;-68
2021/03/23 12:16:06;;;;;;;13.88;2.80;;;13.60;28.40;;;;;;5037231;28;20047;-68
2021/03/23 12:18:34;;;;;;;4.30;1.75;;;13.40;28.10;;;;;;5071421;28;20482;-68
2021/03/23 12:21:01;;;;;;;5.20;2.03;;;13.30;28.80;;;;;;5071278;28;20028;-67
2021/03/23 12:23:28;;;;;;;7.30;2.10;;;13.10;29.00;;;;;;5071112;28;20036;-68
2021/03/23 12:25:56;;;;;;;7.18;2.20;;;13.00;29.50;;;;;;5071186;28;20074;-68
2021/03/23 12:28:22;;;;;;;6.47;2.72;;;13.00;29.50;;;;;;5071293;28;20471;-67
2021/03/23 12:30:48;;;;;;;;;;;12.80;30.00;;;;;;5071725;28;20025;-68
2021/03/23 12:33:14;;;;;;;5.85;2.10;;;12.70;29.60;;;;;;5070073;28;19961;-68
2021/03/23 12:35:39;;;;;;;;;;;12.70;29.80;;;;;;5071463;28;20511;-68
2021/03/23 12:38:07;;;;;;;6.13;2.20;;;12.60;30.00;;;;;;5070973;28;19919;-68
2021/03/23 12:40:33;;;;;;;6.88;2.70;;;12.40;30.60;;;;;;5070826;28;20068;-68
2021/03/23 12:42:59;;;;;;;;;;;12.30;30.70;;;;;;5053496;28;20408;-68
2021/03/23 12:45:34;;;;;;;6.45;2.10;;;12.20;30.80;;;;;;5070636;28;19916;-68
2021/03/23 12:48:00;;;;;;;6.82;2.35;;;12.20;31.70;;;;;;5070775;28;20029;-68
2021/03/23 12:50:26;;;;;;;;;;;12.30;31.70;;;;;;5070003;28;20512;-68
2021/03/23 12:52:54;;;;;;;6.25;2.10;;;12.70;30.70;;;;;;5069405;28;19908;-68
2021/03/23 12:55:28;;;;;;;8.75;3.00;;;12.80;30.40;;;;;;5070479;28;20021;-67
2021/03/23 12:58:00;;;;;;;6.13;2.67;;;12.70;30.30;;;;;;5070578;28;20021;-68
2021/03/23 13:00:32;;;;;;;5.28;2.50;;;12.60;31.10;;;;;;5070552;28;20021;-68
2021/03/23 13:03:00;;;;;;;8.57;3.60;;;12.50;30.90;;;;;;5070406;28;20033;-67
2021/03/23 13:05:26;;;;;;;9.02;3.25;;;12.40;31.30;;;;;;5070291;28;20025;-67
2021/03/23 13:07:54;;;;;;;7.05;3.45;;;12.40;31.70;;;;;;5070414;28;20039;-68
2021/03/23 13:10:37;;;;;;;6.53;3.00;;;12.40;31.20;;;;;;5069021;28;20513;-68
2021/03/23 13:13:15;;;;;;;7.15;3.38;;;12.20;31.60;;;;;;5070538;28;20029;-67
2021/03/23 13:15:41;;;;;;;7.50;3.10;;;12.20;31.90;;;;;;5068935;28;20033;-67
2021/03/23 13:18:10;;;;;;;;;;;12.10;32.50;;;;;;5069497;28;20089;-66
2021/03/23 13:20:36;;;;;;;9.23;3.25;;;12.10;32.40;;;;;;5069543;28;20292;-69
2021/03/23 13:23:02;;;;;;;;;;;12.10;32.60;;;;;;5070659;28;20040;-68